Time;durP1;ratioP1;P1;durP2;ratioP2;P2;SDS_P1;SDS_P2;PMS_P1;PMS_P2;Temp;Humidity;BMP_temperature;BMP_pressure;BME280_temperature;BME280_humidity;BME280_pressure;Samples;Min_cycle;Max_cycle;Signal;HPM_P1;HPM_P2
2022/12/05 00:02:10;;;;;;;4.53;4.13;;;;;;;;;;4975676;28;20054;-82
2022/12/05 00:04:51;;;;;;;4.20;3.80;;;;;;;;;;4975752;28;20046;-82
2022/12/05 00:07:39;;;;;;;6.13;4.85;;;;;;;;;;4959436;28;20570;-81
2022/12/05 00:10:10;;;;;;;5.90;5.25;;;;;;;;;;4967882;28;20058;-80
2022/12/05 00:13:06;;;;;;;7.55;5.68;;;;;;;;;;4965181;28;20073;-81
2022/12/05 00:15:36;;;;;;;7.00;5.90;;;;;;;;;;4960137;28;20144;-83
2022/12/05 00:18:03;;;;;;;7.13;6.35;;;;;;;;;;4986136;28;20065;-82
2022/12/05 00:20:29;;;;;;;8.98;6.47;;;;;;;;;;4970488;28;20038;-81
2022/12/05 00:23:01;;;;;;;4.78;4.38;;;;;;;;;;4959645;28;20041;-81
2022/12/05 00:25:28;;;;;;;5.78;5.25;;;;;;;;;;4972789;28;20042;-80
2022/12/05 00:28:16;;;;;;;4.80;4.40;;;;;;;;;;4988874;28;20049;-81
2022/12/05 00:30:44;;;;;;;6.13;4.45;;;;;;;;;;4958502;28;20136;-82
2022/12/05 00:33:28;;;;;;;6.10;5.50;;;;;;;;;;4981859;28;20046;-82
2022/12/05 00:35:54;;;;;;;8.10;6.47;;;;;;;;;;4977121;28;20062;-80
2022/12/05 00:38:30;;;;;;;4.38;3.97;;;;;;;;;;4991504;28;20076;-81
2022/12/05 00:41:25;;;;;;;8.15;6.13;;;;;;;;;;4991588;28;20071;-82
2022/12/05 00:43:53;;;;;;;6.57;5.78;;;;;;;;;;4986170;28;20072;-80
2022/12/05 00:46:51;;;;;;;4.80;4.40;;;;;;;;;;4959631;28;20053;-80
2022/12/05 00:49:17;;;;;;;5.07;3.80;;;;;;;;;;4993302;28;20722;-80
2022/12/05 00:52:06;;;;;;;7.30;5.82;;;;;;;;;;4976647;28;20030;-81
2022/12/05 00:54:35;;;;;;;6.32;4.57;;;;;;;;;;4982575;28;20049;-82
2022/12/05 00:57:12;;;;;;;9.65;6.30;;;;;;;;;;4985145;28;20038;-80
2022/12/05 00:59:53;;;;;;;6.40;5.80;;;;;;;;;;4986442;28;20042;-80
2022/12/05 01:02:23;;;;;;;5.10;4.32;;;;;;;;;;4961735;28;20065;-81
2022/12/05 01:04:50;;;;;;;5.43;4.93;;;;;;;;;;5007614;28;20111;-80
2022/12/05 01:07:31;;;;;;;;;;;;;;;;;;4982574;28;20598;-81
2022/12/05 01:10:26;;;;;;;8.80;7.88;;;;;;;;;;4992512;28;19924;-81
2022/12/05 01:12:53;;;;;;;5.85;5.18;;;;;;;;;;4988144;28;20064;-81
2022/12/05 01:15:19;;;;;;;13.15;6.13;;;;;;;;;;4972246;28;20046;-80
2022/12/05 01:18:12;;;;;;;7.05;4.40;;;;;;;;;;4970091;28;20128;-79
2022/12/05 01:20:39;;;;;;;5.88;5.38;;;;;;;;;;4981917;28;20046;-81
2022/12/05 01:23:08;;;;;;;5.53;4.47;;;;;;;;;;4970990;28;20052;-81
2022/12/05 01:25:55;;;;;;;8.50;5.13;;;;;;;;;;5002128;28;20038;-80
2022/12/05 01:28:23;;;;;;;6.90;6.30;;;;;;;;;;4989083;28;20046;-82
2022/12/05 01:30:49;;;;;;;6.68;5.45;;;;;;;;;;4996828;28;20044;-82
2022/12/05 01:33:24;;;;;;;6.07;5.55;;;;;;;;;;4996248;28;20045;-81
2022/12/05 01:35:50;;;;;;;5.80;4.88;;;;;;;;;;4994608;28;20416;-81
2022/12/05 01:38:16;;;;;;;5.72;5.15;;;;;;;;;;4995084;28;20038;-80
2022/12/05 01:40:48;;;;;;;4.60;4.22;;;;;;;;;;4981505;28;20053;-81
2022/12/05 01:43:17;;;;;;;8.57;6.80;;;;;;;;;;4997194;28;20037;-81
2022/12/05 01:45:55;;;;;;;4.82;4.05;;;;;;;;;;4992877;28;20064;-82
2022/12/05 01:48:25;;;;;;;5.35;4.32;;;;;;;;;;4985955;28;20430;-82
2022/12/05 01:50:56;;;;;;;8.35;5.15;;;;;;;;;;5002498;28;20038;-81
2022/12/05 01:53:29;;;;;;;5.50;4.97;;;;;;;;;;4968852;28;20041;-80
2022/12/05 01:55:57;;;;;;;6.15;5.55;;;;;;;;;;4996932;28;20045;-81
2022/12/05 01:58:24;;;;;;;8.05;6.40;;;;;;;;;;4981137;28;20106;-81
2022/12/05 02:00:56;;;;;;;7.32;6.65;;;;;;;;;;4981375;28;20038;-83
2022/12/05 02:03:22;;;;;;;;;;;;;;;;;;4980510;28;20053;-80
2022/12/05 02:05:53;;;;;;;4.18;3.88;;;;;;;;;;4985400;28;19913;-81
2022/12/05 02:08:27;;;;;;;7.32;6.47;;;;;;;;;;4986903;28;20049;-79
2022/12/05 02:10:57;;;;;;;4.95;4.55;;;;;;;;;;4982832;28;20057;-82
2022/12/05 02:13:41;;;;;;;6.65;5.93;;;;;;;;;;5001512;28;20054;-80
2022/12/05 02:16:11;;;;;;;9.27;5.90;;;;;;;;;;5001366;28;20522;-81
2022/12/05 02:18:50;;;;;;;5.88;4.50;;;;;;;;;;4983819;28;20073;-79
2022/12/05 02:21:43;;;;;;;5.45;4.20;;;;;;;;;;4996203;28;20046;-80
2022/12/05 02:24:28;;;;;;;3.42;3.17;;;;;;;;;;4975585;28;20136;-79
2022/12/05 02:26:57;;;;;;;5.97;5.47;;;;;;;;;;4978928;28;20399;-78
2022/12/05 02:29:42;;;;;;;4.60;4.18;;;;;;;;;;4979385;28;20589;-80
2022/12/05 02:32:27;;;;;;;6.25;5.15;;;;;;;;;;5012380;28;20046;-81
2022/12/05 02:34:59;;;;;;;11.75;7.13;;;;;;;;;;4995772;28;20086;-80
2022/12/05 02:37:39;;;;;;;5.65;5.15;;;;;;;;;;4996219;28;20073;-81
2022/12/05 02:40:15;;;;;;;6.05;4.43;;;;;;;;;;4979123;28;20041;-80
2022/12/05 02:42:45;;;;;;;4.47;4.07;;;;;;;;;;4980684;28;20052;-80
2022/12/05 02:45:39;;;;;;;5.90;5.30;;;;;;;;;;4996495;28;20838;-78
2022/12/05 02:48:06;;;;;;;5.05;4.65;;;;;;;;;;4989129;28;20058;-79
2022/12/05 02:50:39;;;;;;;5.07;3.65;;;;;;;;;;4979840;28;20105;-80
2022/12/05 02:53:28;;;;;;;4.72;4.40;;;;;;;;;;4998454;28;20080;-80
2022/12/05 02:56:03;;;;;;;5.25;4.63;;;;;;;;;;4994143;28;20038;-78
2022/12/05 02:58:41;;;;;;;5.05;4.65;;;;;;;;;;4978441;28;20061;-79
2022/12/05 03:01:13;;;;;;;5.38;3.88;;;;;;;;;;4980228;28;20030;-79
2022/12/05 03:04:00;;;;;;;4.88;4.47;;;;;;;;;;5014802;28;20099;-80
2022/12/05 03:06:33;;;;;;;5.78;5.28;;;;;;;;;;4979674;28;20091;-80
2022/12/05 03:09:22;;;;;;;6.13;5.63;;;;;;;;;;4975110;28;20054;-79
2022/12/05 03:11:52;;;;;;;7.82;6.25;;;;;;;;;;4917062;29;20050;-79
2022/12/05 03:14:24;;;;;;;5.82;5.28;;;;;;;;;;4917681;29;20105;-78
2022/12/05 03:16:51;;;;;;;7.45;5.22;;;;;;;;;;4929611;29;20046;-79
2022/12/05 03:19:28;;;;;;;6.63;5.40;;;;;;;;;;4917650;29;20043;-79
2022/12/05 03:22:27;;;;;;;6.80;6.35;;;;;;;;;;4947297;29;20050;-78
2022/12/05 03:25:21;;;;;;;6.78;6.10;;;;;;;;;;4931533;29;20111;-79
2022/12/05 03:27:58;;;;;;;4.32;3.92;;;;;;;;;;4925751;29;20043;-79
2022/12/05 03:30:24;;;;;;;8.48;6.75;;;;;;;;;;4916904;29;20051;-79
2022/12/05 03:33:09;;;;;;;7.07;6.40;;;;;;;;;;4925006;29;20063;-79
2022/12/05 03:35:41;;;;;;;5.50;4.72;;;;;;;;;;4904328;29;20043;-80
2022/12/05 03:38:22;;;;;;;4.25;3.78;;;;;;;;;;4934717;29;20043;-79
2022/12/05 03:40:55;;;;;;;3.58;3.33;;;;;;;;;;4941951;29;20043;-78
2022/12/05 03:43:35;;;;;;;5.55;4.70;;;;;;;;;;4963274;28;20514;-78
2022/12/05 03:46:03;;;;;;;5.80;4.97;;;;;;;;;;4961005;28;20063;-78
2022/12/05 03:48:41;;;;;;;4.88;4.38;;;;;;;;;;4953523;28;20054;-80
2022/12/05 03:51:51;;;;;;;10.85;5.60;;;;;;;;;;4977770;28;20061;-79
2022/12/05 03:54:28;;;;;;;5.68;4.28;;;;;;;;;;4961326;28;20045;-79
2022/12/05 03:57:04;;;;;;;4.28;3.88;;;;;;;;;;4944869;28;20034;-78
2022/12/05 03:59:44;;;;;;;4.05;3.72;;;;;;;;;;4952437;28;20172;-79
2022/12/05 04:02:27;;;;;;;6.72;5.68;;;;;;;;;;4951926;28;20046;-79
2022/12/05 04:05:07;;;;;;;4.38;3.35;;;;;;;;;;4966374;28;20042;-80
2022/12/05 04:08:19;;;;;;;4.30;4.00;;;;;;;;;;4984976;28;20042;-80
2022/12/05 04:10:48;;;;;;;7.68;7.00;;;;;;;;;;4990971;28;20055;-78
2022/12/05 04:13:17;;;;;;;5.28;4.72;;;;;;;;;;5019048;28;20072;-77
2022/12/05 04:18:38;;;;;;;8.25;4.30;;;;;;;;;;4999502;28;20046;-81
2022/12/05 04:21:47;;;;;;;4.00;3.17;;;;;;;;;;4998738;28;20046;-80
2022/12/05 04:27:13;;;;;;;6.50;5.22;;;;;;;;;;4996449;28;20034;-80
2022/12/05 04:29:44;;;;;;;5.15;4.80;;;;;;;;;;4973838;28;20061;-81
2022/12/05 04:32:10;;;;;;;5.40;4.90;;;;;;;;;;5001954;28;20084;-81
2022/12/05 04:34:37;;;;;;;3.67;3.42;;;;;;;;;;5030217;28;20055;-81
2022/12/05 04:37:06;;;;;;;4.80;4.28;;;;;;;;;;5043710;28;20037;-82
2022/12/05 04:39:50;;;;;;;3.50;3.30;;;;;;;;;;5042667;28;20504;-81
2022/12/05 04:42:17;;;;;;;5.30;4.90;;;;;;;;;;5037371;28;20545;-81
2022/12/05 04:45:10;;;;;;;7.18;5.55;;;;;;;;;;5023492;28;20038;-81
2022/12/05 04:47:44;;;;;;;5.18;4.68;;;;;;;;;;4985260;28;20462;-81
2022/12/05 04:50:11;;;;;;;4.00;3.35;;;;;;;;;;5003527;28;20057;-81
2022/12/05 04:52:40;;;;;;;3.45;3.15;;;;;;;;;;4989161;28;20046;-81
2022/12/05 04:55:07;;;;;;;6.18;5.57;;;;;;;;;;4991420;28;20145;-82
2022/12/05 04:58:00;;;;;;;5.85;5.22;;;;;;;;;;5041423;28;20125;-81
2022/12/05 05:00:52;;;;;;;4.85;4.05;;;;;;;;;;5015475;28;20571;-82
2022/12/05 05:03:20;;;;;;;6.53;5.43;;;;;;;;;;5016128;28;20041;-80
2022/12/05 05:06:02;;;;;;;4.47;4.10;;;;;;;;;;5015789;28;20442;-80
2022/12/05 05:08:28;;;;;;;6.68;5.85;;;;;;;;;;5028732;28;20050;-80
2022/12/05 05:11:19;;;;;;;5.45;4.65;;;;;;;;;;4995567;28;20050;-78
2022/12/05 05:13:46;;;;;;;3.95;3.63;;;;;;;;;;4946343;28;20046;-79
2022/12/05 05:16:37;;;;;;;6.15;5.63;;;;;;;;;;4977851;28;20038;-79
2022/12/05 05:19:32;;;;;;;7.68;5.72;;;;;;;;;;4956950;28;20053;-77
2022/12/05 05:21:59;;;;;;;6.50;5.72;;;;;;;;;;4992936;28;20042;-78
2022/12/05 05:24:30;;;;;;;6.22;5.57;;;;;;;;;;4964643;28;20478;-78
2022/12/05 05:27:00;;;;;;;6.05;5.50;;;;;;;;;;5012799;28;20111;-79
2022/12/05 05:29:27;;;;;;;6.57;5.75;;;;;;;;;;4994803;28;20046;-77
2022/12/05 05:31:54;;;;;;;4.97;4.65;;;;;;;;;;4982330;28;20391;-81
2022/12/05 05:34:27;;;;;;;7.40;5.97;;;;;;;;;;4995222;28;20042;-80
2022/12/05 05:36:53;;;;;;;27.75;5.80;;;;;;;;;;4994665;28;20045;-79
2022/12/05 05:39:21;;;;;;;8.10;5.38;;;;;;;;;;4994887;28;20446;-78
2022/12/05 05:42:11;;;;;;;5.90;5.28;;;;;;;;;;5009852;28;20037;-78
2022/12/05 05:44:52;;;;;;;5.28;4.88;;;;;;;;;;4991099;28;20088;-78
2022/12/05 05:47:18;;;;;;;;;;;;;;;;;;4974863;28;20551;-77
2022/12/05 05:50:21;;;;;;;4.03;3.72;;;;;;;;;;4990465;28;19921;-77
2022/12/05 05:52:47;;;;;;;4.53;4.15;;;;;;;;;;4964770;28;20041;-83
2022/12/05 05:55:13;;;;;;;5.10;4.28;;;;;;;;;;4974593;28;20065;-82
2022/12/05 05:57:39;;;;;;;5.40;5.00;;;;;;;;;;5023251;28;20042;-81
2022/12/05 06:00:30;;;;;;;5.43;4.93;;;;;;;;;;4984854;28;20050;-79
2022/12/05 06:03:23;;;;;;;5.13;4.73;;;;;;;;;;4995102;28;20517;-79
2022/12/05 06:06:02;;;;;;;4.78;4.25;;;;;;;;;;4961654;28;20391;-79
2022/12/05 06:08:34;;;;;;;4.05;3.75;;;;;;;;;;4962443;28;20073;-77
2022/12/05 06:11:07;;;;;;;7.95;5.82;;;;;;;;;;4962031;28;20066;-79
2022/12/05 06:13:33;;;;;;;7.28;5.75;;;;;;;;;;4962176;28;20046;-77
2022/12/05 06:16:06;;;;;;;9.98;6.38;;;;;;;;;;4961541;28;20045;-78
2022/12/05 06:18:32;;;;;;;9.55;6.55;;;;;;;;;;4960711;28;20042;-80
2022/12/05 06:20:58;;;;;;;5.78;4.97;;;;;;;;;;4978658;28;20114;-80
2022/12/05 06:23:24;;;;;;;8.73;5.70;;;;;;;;;;4947177;28;20217;-79
2022/12/05 06:25:52;;;;;;;4.97;4.57;;;;;;;;;;4994726;28;20513;-78
2022/12/05 06:28:25;;;;;;;6.72;5.40;;;;;;;;;;5011928;28;20096;-79
2022/12/05 06:31:01;;;;;;;6.28;5.63;;;;;;;;;;4961206;28;20108;-78
2022/12/05 06:33:30;;;;;;;6.85;6.18;;;;;;;;;;4993510;28;20160;-78
2022/12/05 06:36:07;;;;;;;5.82;5.32;;;;;;;;;;5010652;28;20046;-78
2022/12/05 06:38:36;;;;;;;6.75;6.13;;;;;;;;;;4978156;28;20046;-78
2022/12/05 06:41:17;;;;;;;11.77;7.10;;;;;;;;;;4983677;28;20046;-79
2022/12/05 06:43:44;;;;;;;6.25;5.65;;;;;;;;;;4974170;28;20046;-80
2022/12/05 06:46:12;;;;;;;8.05;6.57;;;;;;;;;;5006807;28;20046;-78
2022/12/05 06:48:38;;;;;;;6.43;5.65;;;;;;;;;;4973640;28;20061;-79
2022/12/05 06:51:07;;;;;;;7.30;6.60;;;;;;;;;;4973737;28;20415;-78
2022/12/05 06:53:42;;;;;;;8.98;7.22;;;;;;;;;;4974439;28;20046;-80
2022/12/05 06:56:12;;;;;;;5.70;5.13;;;;;;;;;;4974736;28;20030;-78
2022/12/05 06:58:42;;;;;;;4.50;4.15;;;;;;;;;;4974337;28;20054;-78
2022/12/05 07:04:03;;;;;;;8.07;5.28;;;;;;;;;;4989236;28;20057;-79
2022/12/05 07:06:32;;;;;;;5.38;4.97;;;;;;;;;;5012206;28;20042;-79
2022/12/05 07:08:58;;;;;;;6.95;5.90;;;;;;;;;;4993098;28;20148;-78
2022/12/05 07:11:29;;;;;;;9.77;6.85;;;;;;;;;;5011146;28;20129;-79
2022/12/05 07:17:24;;;;;;;7.20;6.53;;;;;;;;;;5006766;28;20044;-77
2022/12/05 07:19:59;;;;;;;7.63;6.72;;;;;;;;;;4996321;28;20038;-77
2022/12/05 07:22:29;;;;;;;7.55;5.50;;;;;;;;;;4997747;28;20045;-77
2022/12/05 07:24:55;;;;;;;5.65;5.00;;;;;;;;;;4979627;28;20045;-77
2022/12/05 07:27:26;;;;;;;8.18;6.25;;;;;;;;;;5017078;28;20514;-77
2022/12/05 07:29:53;;;;;;;7.80;6.53;;;;;;;;;;5006832;28;20053;-78
2022/12/05 07:32:19;;;;;;;6.25;5.65;;;;;;;;;;4992486;28;20037;-78
2022/12/05 07:34:51;;;;;;;6.90;6.22;;;;;;;;;;4975725;28;20133;-78
2022/12/05 07:37:32;;;;;;;10.10;6.78;;;;;;;;;;4992400;28;20046;-80
2022/12/05 07:40:01;;;;;;;7.68;6.43;;;;;;;;;;4960497;28;20037;-77
2022/12/05 07:42:28;;;;;;;5.13;4.72;;;;;;;;;;4992159;28;20049;-78
2022/12/05 07:44:54;;;;;;;9.68;6.07;;;;;;;;;;4975630;28;20521;-78
2022/12/05 07:47:47;;;;;;;12.25;8.68;;;;;;;;;;4962533;28;20048;-78
2022/12/05 07:50:16;;;;;;;9.27;7.85;;;;;;;;;;5009646;28;20041;-78
2022/12/05 07:52:42;;;;;;;8.52;6.07;;;;;;;;;;4958038;28;20058;-78
2022/12/05 07:55:18;;;;;;;7.47;5.75;;;;;;;;;;4945553;28;20053;-77
2022/12/05 07:57:45;;;;;;;10.32;6.47;;;;;;;;;;5007916;28;20042;-79
2022/12/05 08:03:38;;;;;;;8.63;7.45;;;;;;;;;;4991691;28;20054;-77
2022/12/05 08:06:16;;;;;;;6.15;5.55;;;;;;;;;;4956891;28;20057;-81
2022/12/05 08:08:44;;;;;;;7.80;6.32;;;;;;;;;;5004717;28;20153;-75
2022/12/05 08:11:21;;;;;;;6.32;5.60;;;;;;;;;;4972063;28;20058;-76
2022/12/05 08:13:47;;;;;;;7.30;5.63;;;;;;;;;;4940135;28;20034;-75
2022/12/05 08:16:17;;;;;;;7.32;6.57;;;;;;;;;;4958443;28;20072;-75
2022/12/05 08:18:43;;;;;;;6.43;5.78;;;;;;;;;;4941765;28;20135;-75
2022/12/05 08:21:10;;;;;;;10.75;6.70;;;;;;;;;;4958785;28;20042;-75
2022/12/05 08:23:40;;;;;;;11.82;5.60;;;;;;;;;;4959678;28;20045;-75
2022/12/05 08:26:07;;;;;;;9.63;5.88;;;;;;;;;;4959187;28;20042;-76
2022/12/05 08:28:33;;;;;;;3.90;3.50;;;;;;;;;;4943519;28;20121;-75
2022/12/05 08:31:04;;;;;;;7.45;5.72;;;;;;;;;;4971365;28;20550;-75
2022/12/05 08:33:30;;;;;;;;;;;;;;;;;;4980437;28;20054;-75
2022/12/05 08:35:58;;;;;;;10.30;8.02;;;;;;;;;;4984091;28;19968;-75
2022/12/05 08:38:29;;;;;;;6.82;5.22;;;;;;;;;;4982356;28;20181;-75
2022/12/05 08:40:54;;;;;;;7.25;6.63;;;;;;;;;;4989901;28;20042;-75
2022/12/05 08:43:21;;;;;;;11.10;9.93;;;;;;;;;;4956056;28;20048;-74
2022/12/05 08:45:48;;;;;;;11.63;7.97;;;;;;;;;;4945460;28;20046;-74
2022/12/05 08:48:14;;;;;;;7.90;6.38;;;;;;;;;;4962231;28;20046;-75
2022/12/05 08:50:40;;;;;;;7.30;6.63;;;;;;;;;;4961336;28;20046;-75
2022/12/05 08:53:11;;;;;;;15.52;10.52;;;;;;;;;;4980422;28;20042;-75
2022/12/05 08:55:37;;;;;;;9.27;7.18;;;;;;;;;;4962643;28;20046;-75
2022/12/05 08:58:04;;;;;;;11.70;5.57;;;;;;;;;;4961423;28;20104;-74
2022/12/05 09:00:33;;;;;;;15.00;9.50;;;;;;;;;;4977863;28;20045;-75
2022/12/05 09:03:23;;;;;;;6.00;5.43;;;;;;;;;;5012128;28;20061;-74
2022/12/05 09:05:49;;;;;;;5.93;5.43;;;;;;;;;;4978405;28;20050;-76
2022/12/05 09:08:23;;;;;;;7.50;6.13;;;;;;;;;;4979224;28;20049;-76
2022/12/05 09:10:49;;;;;;;7.53;6.70;;;;;;;;;;4978744;28;20141;-75
2022/12/05 09:13:18;;;;;;;16.75;7.38;;;;;;;;;;4962422;28;20542;-75
2022/12/05 09:15:44;;;;;;;11.38;6.45;;;;;;;;;;4957997;28;20085;-75
2022/12/05 09:18:19;;;;;;;9.75;7.18;;;;;;;;;;4943327;28;20046;-75
2022/12/05 09:20:54;;;;;;;6.20;5.40;;;;;;;;;;4993311;28;20519;-74
2022/12/05 09:23:21;;;;;;;4.78;4.38;;;;;;;;;;4943269;28;20548;-75
2022/12/05 09:25:56;;;;;;;6.43;5.38;;;;;;;;;;4950184;28;20045;-75
2022/12/05 09:28:28;;;;;;;5.75;5.10;;;;;;;;;;4971826;28;20069;-75
2022/12/05 09:30:55;;;;;;;5.75;5.25;;;;;;;;;;4969432;28;20042;-75
2022/12/05 09:33:23;;;;;;;7.75;6.45;;;;;;;;;;4970508;28;20058;-75
2022/12/05 09:35:49;;;;;;;6.10;5.60;;;;;;;;;;4951355;28;20068;-76
2022/12/05 09:38:15;;;;;;;5.88;5.30;;;;;;;;;;4967633;28;20042;-74
2022/12/05 09:41:06;;;;;;;5.15;4.60;;;;;;;;;;4969599;28;20092;-75
2022/12/05 09:43:35;;;;;;;6.53;5.07;;;;;;;;;;4962941;28;20042;-74
2022/12/05 09:46:09;;;;;;;4.10;3.80;;;;;;;;;;4963820;28;20302;-74
2022/12/05 09:48:35;;;;;;;12.70;6.55;;;;;;;;;;4980815;28;20049;-74
2022/12/05 09:51:14;;;;;;;3.70;3.17;;;;;;;;;;4962443;28;20038;-76
2022/12/05 09:53:41;;;;;;;5.72;4.47;;;;;;;;;;4962300;28;20053;-75
2022/12/05 09:56:16;;;;;;;9.07;5.78;;;;;;;;;;4943586;28;20056;-76
2022/12/05 09:59:01;;;;;;;8.15;6.07;;;;;;;;;;4961019;28;20558;-75
2022/12/05 10:01:29;;;;;;;9.27;5.40;;;;;;;;;;4978608;28;20046;-75
2022/12/05 10:04:02;;;;;;;4.72;4.35;;;;;;;;;;4977282;28;20045;-74
2022/12/05 10:06:29;;;;;;;7.05;6.35;;;;;;;;;;4959121;28;20150;-73
2022/12/05 10:09:13;;;;;;;9.13;5.80;;;;;;;;;;4941781;28;20061;-73
2022/12/05 10:11:47;;;;;;;6.53;5.60;;;;;;;;;;4951954;28;20053;-74
2022/12/05 10:14:32;;;;;;;6.15;5.53;;;;;;;;;;4960637;28;20545;-73
2022/12/05 10:17:09;;;;;;;4.45;4.05;;;;;;;;;;4976228;28;20399;-73
2022/12/05 10:19:40;;;;;;;5.40;4.90;;;;;;;;;;4975789;28;20308;-74
2022/12/05 10:22:06;;;;;;;5.97;4.88;;;;;;;;;;4988537;28;20045;-75
2022/12/05 10:24:58;;;;;;;10.25;8.27;;;;;;;;;;4993153;28;20050;-74
2022/12/05 10:27:24;;;;;;;;;;;;;;;;;;4960570;28;20101;-74
2022/12/05 10:29:52;;;;;;;6.85;6.07;;;;;;;;;;4959906;28;20464;-76
2022/12/05 10:32:36;;;;;;;11.13;10.00;;;;;;;;;;4978956;28;20156;-77
2022/12/05 10:35:18;;;;;;;6.25;5.72;;;;;;;;;;4948438;28;20145;-77
2022/12/05 10:37:48;;;;;;;9.07;5.47;;;;;;;;;;4946734;28;20046;-78
2022/12/05 10:40:14;;;;;;;9.35;5.03;;;;;;;;;;4947391;28;20042;-77
2022/12/05 10:42:40;;;;;;;9.45;7.90;;;;;;;;;;4948725;28;20113;-78
2022/12/05 10:45:15;;;;;;;7.75;5.53;;;;;;;;;;4947979;28;20196;-77
2022/12/05 10:48:01;;;;;;;3.45;3.25;;;;;;;;;;4982504;28;20046;-77
2022/12/05 10:50:31;;;;;;;3.63;3.33;;;;;;;;;;4959208;28;20050;-77
2022/12/05 10:52:58;;;;;;;7.87;5.60;;;;;;;;;;4960679;28;20042;-77
2022/12/05 10:55:34;;;;;;;8.80;5.10;;;;;;;;;;4968131;28;20022;-79
2022/12/05 10:58:13;;;;;;;8.98;6.97;;;;;;;;;;4953868;28;20042;-74
2022/12/05 11:00:46;;;;;;;4.80;4.28;;;;;;;;;;4982295;28;20049;-75
2022/12/05 11:03:38;;;;;;;11.02;7.65;;;;;;;;;;4979446;28;20056;-76
2022/12/05 11:06:14;;;;;;;8.75;5.47;;;;;;;;;;4969634;28;20046;-77
2022/12/05 11:08:50;;;;;;;10.13;6.97;;;;;;;;;;4965764;28;20061;-77
2022/12/05 11:11:20;;;;;;;4.60;4.20;;;;;;;;;;4985156;28;20050;-78
2022/12/05 11:13:53;;;;;;;5.55;4.50;;;;;;;;;;4970753;28;20042;-78
2022/12/05 11:16:30;;;;;;;9.50;6.47;;;;;;;;;;4975960;28;20030;-77
2022/12/05 11:18:56;;;;;;;6.13;5.63;;;;;;;;;;4944935;28;20049;-77
2022/12/05 11:21:22;;;;;;;5.57;5.10;;;;;;;;;;4947113;28;20099;-77
2022/12/05 11:23:49;;;;;;;6.10;5.50;;;;;;;;;;4969139;28;20037;-77
2022/12/05 11:26:41;;;;;;;8.50;7.13;;;;;;;;;;5001077;28;20065;-77
2022/12/05 11:29:30;;;;;;;10.50;5.07;;;;;;;;;;4982880;28;20072;-77
2022/12/05 11:32:05;;;;;;;6.35;5.72;;;;;;;;;;4977853;28;20042;-78
2022/12/05 11:34:40;;;;;;;4.53;4.13;;;;;;;;;;4992246;28;20053;-77
2022/12/05 11:37:13;;;;;;;6.40;5.75;;;;;;;;;;4993338;28;20049;-77
2022/12/05 11:40:06;;;;;;;9.10;5.85;;;;;;;;;;4997394;28;20049;-77
2022/12/05 11:42:39;;;;;;;6.63;5.80;;;;;;;;;;4991747;28;20050;-77
2022/12/05 11:45:28;;;;;;;6.88;6.15;;;;;;;;;;4988915;28;20029;-76
2022/12/05 11:48:09;;;;;;;5.50;4.88;;;;;;;;;;4974780;28;20380;-76
2022/12/05 11:50:38;;;;;;;7.50;6.70;;;;;;;;;;4976857;28;20049;-76
2022/12/05 11:53:07;;;;;;;6.70;5.85;;;;;;;;;;4960352;28;20046;-76
2022/12/05 11:55:46;;;;;;;6.32;5.72;;;;;;;;;;4980133;28;20140;-76
2022/12/05 11:58:24;;;;;;;4.82;4.30;;;;;;;;;;4963617;28;20096;-76
2022/12/05 12:01:09;;;;;;;6.25;5.15;;;;;;;;;;4979530;28;20061;-76
2022/12/05 12:03:41;;;;;;;9.13;5.35;;;;;;;;;;4979101;28;20077;-76
2022/12/05 12:06:29;;;;;;;8.85;6.05;;;;;;;;;;4967681;28;20213;-75
2022/12/05 12:09:09;;;;;;;5.45;5.05;;;;;;;;;;4993280;28;20430;-78
2022/12/05 12:11:48;;;;;;;5.43;4.93;;;;;;;;;;4960463;28;20042;-78
2022/12/05 12:14:25;;;;;;;7.80;5.47;;;;;;;;;;4981974;28;20042;-78
2022/12/05 12:16:54;;;;;;;4.82;4.43;;;;;;;;;;4960107;28;20041;-78
2022/12/05 12:19:21;;;;;;;15.55;7.60;;;;;;;;;;4960531;28;20514;-78
2022/12/05 12:21:50;;;;;;;4.63;4.22;;;;;;;;;;4963502;28;20156;-78
2022/12/05 12:24:38;;;;;;;5.57;5.03;;;;;;;;;;4980408;28;20077;-77
2022/12/05 12:27:24;;;;;;;5.20;4.50;;;;;;;;;;4980672;28;20478;-78
2022/12/05 12:30:05;;;;;;;6.00;5.40;;;;;;;;;;4963566;28;20113;-78
2022/12/05 12:32:50;;;;;;;5.05;4.65;;;;;;;;;;5006773;28;20042;-76
2022/12/05 12:35:16;;;;;;;6.75;5.43;;;;;;;;;;4978231;28;20042;-74
2022/12/05 12:37:46;;;;;;;5.28;4.15;;;;;;;;;;4963636;28;20176;-78
2022/12/05 12:40:13;;;;;;;11.05;5.82;;;;;;;;;;4979985;28;20064;-79
2022/12/05 12:42:47;;;;;;;5.28;4.65;;;;;;;;;;4963754;28;20068;-79
2022/12/05 12:45:17;;;;;;;4.63;4.22;;;;;;;;;;4964238;28;20041;-78
2022/12/05 12:48:14;;;;;;;5.22;4.50;;;;;;;;;;4979750;28;20042;-76
2022/12/05 12:50:41;;;;;;;5.07;4.55;;;;;;;;;;4962873;28;20062;-77
2022/12/05 12:53:19;;;;;;;5.00;4.50;;;;;;;;;;4964840;28;20073;-79
2022/12/05 12:55:50;;;;;;;4.93;4.55;;;;;;;;;;4995519;28;20335;-77
2022/12/05 12:58:30;;;;;;;3.37;3.00;;;;;;;;;;4947355;28;20042;-76
2022/12/05 13:01:01;;;;;;;5.90;5.13;;;;;;;;;;4962802;28;20312;-76
2022/12/05 13:03:52;;;;;;;4.07;3.78;;;;;;;;;;4995031;28;20108;-76
2022/12/05 13:06:25;;;;;;;7.00;5.18;;;;;;;;;;4988122;28;20136;-76
2022/12/05 13:08:55;;;;;;;8.35;4.65;;;;;;;;;;4962541;28;20046;-76
2022/12/05 13:11:22;;;;;;;11.35;7.28;;;;;;;;;;4963072;28;20133;-75
2022/12/05 13:13:52;;;;;;;6.22;4.90;;;;;;;;;;4946371;28;20044;-75
2022/12/05 13:16:25;;;;;;;5.93;4.95;;;;;;;;;;4962252;28;20037;-75
2022/12/05 13:18:54;;;;;;;6.78;5.18;;;;;;;;;;4978628;28;20425;-75
2022/12/05 13:21:23;;;;;;;9.30;6.68;;;;;;;;;;4962416;28;20042;-76
2022/12/05 13:24:09;;;;;;;5.00;4.57;;;;;;;;;;4962114;28;20048;-75
2022/12/05 13:26:51;;;;;;;7.80;5.13;;;;;;;;;;4994006;28;20068;-75
2022/12/05 13:29:37;;;;;;;10.25;4.93;;;;;;;;;;4962577;28;20065;-77
2022/12/05 13:32:33;;;;;;;5.38;4.90;;;;;;;;;;4979428;28;20088;-78
2022/12/05 13:35:06;;;;;;;4.72;4.40;;;;;;;;;;4976281;28;20042;-76
2022/12/05 13:43:10;;;;;;;8.17;4.50;;;;;;;;;;4974268;28;20038;-77
2022/12/05 13:45:37;;;;;;;7.05;5.10;;;;;;;;;;4944096;28;20351;-77
2022/12/05 13:48:10;;;;;;;5.03;4.68;;;;;;;;;;4964534;28;20136;-76
2022/12/05 13:50:47;;;;;;;7.35;6.63;;;;;;;;;;4979445;28;20620;-77
2022/12/05 13:56:51;;;;;;;4.72;4.32;;;;;;;;;;4975370;28;20096;-75
2022/12/05 13:59:37;;;;;;;5.50;4.97;;;;;;;;;;4940052;28;20124;-77
2022/12/05 14:02:30;;;;;;;6.88;6.25;;;;;;;;;;5008649;28;20042;-79
2022/12/05 14:05:30;;;;;;;7.40;6.25;;;;;;;;;;4935180;28;20053;-77
2022/12/05 14:07:56;;;;;;;9.98;6.38;;;;;;;;;;4945040;28;20071;-77
2022/12/05 14:10:31;;;;;;;5.22;4.68;;;;;;;;;;4987260;28;20049;-76
2022/12/05 14:13:01;;;;;;;6.05;5.65;;;;;;;;;;4973960;28;20042;-77
2022/12/05 14:15:34;;;;;;;11.73;6.30;;;;;;;;;;4942098;28;20048;-75
2022/12/05 14:18:04;;;;;;;12.18;5.70;;;;;;;;;;4967147;28;20057;-74
2022/12/05 14:20:42;;;;;;;7.10;5.82;;;;;;;;;;4951664;28;20046;-77
2022/12/05 14:23:11;;;;;;;7.25;6.50;;;;;;;;;;4955938;28;20204;-76
2022/12/05 14:25:40;;;;;;;11.38;7.20;;;;;;;;;;4974813;28;20540;-76
2022/12/05 14:28:10;;;;;;;5.50;4.93;;;;;;;;;;4991310;28;20037;-75
2022/12/05 14:34:17;;;;;;;16.13;5.63;;;;;;;;;;5004799;28;20042;-78
2022/12/05 14:36:54;;;;;;;8.48;6.63;;;;;;;;;;4958856;28;20034;-76
2022/12/05 14:39:28;;;;;;;4.93;4.30;;;;;;;;;;4975187;28;20247;-77
2022/12/05 14:42:20;;;;;;;8.27;5.43;;;;;;;;;;4975289;28;20446;-77
2022/12/05 14:44:46;;;;;;;9.57;6.82;;;;;;;;;;4959218;28;20160;-75
2022/12/05 14:47:40;;;;;;;5.80;5.15;;;;;;;;;;4991986;28;20056;-77
2022/12/05 14:50:24;;;;;;;4.28;3.97;;;;;;;;;;4959857;28;20050;-75
2022/12/05 14:53:30;;;;;;;6.03;5.53;;;;;;;;;;5008793;28;20514;-78
2022/12/05 14:55:59;;;;;;;4.85;4.47;;;;;;;;;;4863207;29;20053;-78
2022/12/05 14:58:35;;;;;;;8.25;6.68;;;;;;;;;;4910129;29;20044;-77
2022/12/05 15:01:06;;;;;;;5.68;4.80;;;;;;;;;;4965559;28;20108;-77
2022/12/05 15:03:53;;;;;;;6.78;5.75;;;;;;;;;;4958732;28;20065;-77
2022/12/05 15:06:21;;;;;;;8.75;4.82;;;;;;;;;;4940489;28;20097;-77
2022/12/05 15:08:54;;;;;;;5.85;5.18;;;;;;;;;;4959016;28;20050;-76
2022/12/05 15:11:30;;;;;;;7.45;5.53;;;;;;;;;;5009609;28;20502;-76
2022/12/05 15:14:03;;;;;;;4.82;4.43;;;;;;;;;;4960213;28;20048;-77
2022/12/05 15:16:30;;;;;;;6.07;5.47;;;;;;;;;;4971493;28;20090;-78
2022/12/05 15:19:00;;;;;;;7.22;6.07;;;;;;;;;;4955780;28;20112;-77
2022/12/05 15:21:50;;;;;;;5.85;4.80;;;;;;;;;;4958371;28;20677;-76
2022/12/05 15:24:17;;;;;;;5.22;4.70;;;;;;;;;;4940225;28;20042;-77
2022/12/05 15:26:47;;;;;;;8.57;3.35;;;;;;;;;;4935234;28;20425;-76
2022/12/05 15:29:31;;;;;;;4.35;4.00;;;;;;;;;;4989039;28;20054;-78
2022/12/05 15:35:12;;;;;;;7.53;3.92;;;;;;;;;;4988841;28;20042;-75
2022/12/05 15:37:43;;;;;;;5.70;4.50;;;;;;;;;;4956355;28;20050;-76
2022/12/05 15:40:20;;;;;;;9.50;4.13;;;;;;;;;;4972127;28;20043;-75
2022/12/05 15:42:50;;;;;;;4.43;3.30;;;;;;;;;;4989054;28;20121;-75
2022/12/05 15:48:35;;;;;;;4.90;4.40;;;;;;;;;;4995834;28;20046;-74
2022/12/05 15:51:30;;;;;;;6.65;5.25;;;;;;;;;;5008601;28;20532;-75
2022/12/05 15:53:57;;;;;;;4.22;3.90;;;;;;;;;;4989726;28;20539;-74
2022/12/05 15:56:31;;;;;;;4.72;4.32;;;;;;;;;;4990322;28;20046;-76
2022/12/05 15:59:17;;;;;;;6.38;5.30;;;;;;;;;;4973946;28;20034;-77
2022/12/05 16:01:50;;;;;;;7.40;5.63;;;;;;;;;;4975549;28;20095;-77
2022/12/05 16:04:36;;;;;;;5.35;4.80;;;;;;;;;;4958214;28;20049;-76